Time;durP1;ratioP1;P1;durP2;ratioP2;P2;SDS_P1;SDS_P2;PMS_P1;PMS_P2;Temp;Humidity;BMP_temperature;BMP_pressure;BME280_temperature;BME280_humidity;BME280_pressure;Samples;Min_cycle;Max_cycle;Signal;HPM_P1;HPM_P2
2021/08/28 00:01:56;;;;;;;10.82;3.67;;;17.60;99.00;;;;;;5069574;28;20044;-81
2021/08/28 00:04:21;;;;;;;8.00;3.97;;;17.60;98.90;;;;;;5060295;28;20028;-81
2021/08/28 00:06:47;;;;;;;7.97;3.70;;;17.50;99.00;;;;;;5064336;28;20442;-81
2021/08/28 00:09:13;;;;;;;9.13;4.10;;;17.50;99.10;;;;;;5069547;28;20581;-81
2021/08/28 00:11:39;;;;;;;8.85;3.80;;;17.50;99.30;;;;;;5069454;28;20024;-81
2021/08/28 00:14:05;;;;;;;9.93;4.07;;;17.40;99.40;;;;;;5063828;28;20021;-82
2021/08/28 00:16:31;;;;;;;12.40;4.38;;;17.40;99.50;;;;;;5060108;28;20492;-81
2021/08/28 00:18:56;;;;;;;13.88;4.50;;;17.30;99.90;;;;;;5051088;28;20028;-81
2021/08/28 00:21:22;;;;;;;15.05;4.75;;;17.30;99.80;;;;;;5069215;28;20046;-81
2021/08/28 00:23:48;;;;;;;11.40;4.30;;;17.30;99.90;;;;;;5069044;28;20526;-81
2021/08/28 00:26:14;;;;;;;7.47;3.63;;;17.30;99.80;;;;;;5050830;28;20037;-83
2021/08/28 00:28:39;;;;;;;12.20;4.07;;;17.30;99.90;;;;;;5069147;28;20027;-82
2021/08/28 00:31:05;;;;;;;9.30;3.78;;;17.30;99.80;;;;;;5068773;28;20631;-81
2021/08/28 00:33:31;;;;;;;8.15;3.50;;;17.30;99.90;;;;;;5068818;28;20107;-82
2021/08/28 00:35:57;;;;;;;10.40;3.95;;;17.30;99.90;;;;;;5072332;28;20556;-81
2021/08/28 00:38:22;;;;;;;10.43;4.60;;;17.30;99.90;;;;;;5072721;28;20028;-81
2021/08/28 00:40:48;;;;;;;10.13;3.75;;;17.30;99.90;;;;;;5072748;28;20418;-82
2021/08/28 00:43:14;;;;;;;10.18;4.07;;;17.30;99.90;;;;;;5072903;28;20029;-81
2021/08/28 00:45:41;;;;;;;10.40;3.80;;;17.30;99.90;;;;;;5073029;28;20271;-81
2021/08/28 00:48:09;;;;;;;10.48;4.05;;;17.20;99.90;;;;;;5072826;28;20028;-81
2021/08/28 00:50:36;;;;;;;9.43;3.65;;;17.20;99.90;;;;;;5072996;28;20024;-81
2021/08/28 00:53:04;;;;;;;10.15;4.32;;;17.20;99.90;;;;;;5073070;28;20032;-81
2021/08/28 00:55:39;;;;;;;9.85;4.05;;;17.10;99.90;;;;;;5059591;28;20123;-81
2021/08/28 00:58:06;;;;;;;10.98;3.88;;;17.10;99.90;;;;;;5072341;28;20024;-81
2021/08/28 01:01:05;;;;;;;12.50;3.75;;;17.10;99.90;;;;;;5072222;28;20019;-81
2021/08/28 01:03:33;;;;;;;11.13;3.97;;;17.00;99.90;;;;;;5047827;28;20036;-81
2021/08/28 01:06:06;;;;;;;8.55;3.70;;;17.00;99.90;;;;;;5060888;28;20028;-81
2021/08/28 01:08:38;;;;;;;8.70;3.70;;;17.00;99.90;;;;;;5071985;28;20056;-81
2021/08/28 01:11:17;;;;;;;10.23;3.80;;;17.00;99.90;;;;;;5072368;28;20028;-82
2021/08/28 01:13:47;;;;;;;10.77;4.20;;;17.00;99.90;;;;;;5053816;28;20063;-81
2021/08/28 01:16:16;;;;;;;12.20;4.25;;;16.90;99.90;;;;;;5072243;28;20060;-81
2021/08/28 01:18:43;;;;;;;11.80;3.83;;;16.80;99.90;;;;;;5071778;28;20048;-81
2021/08/28 01:21:34;;;;;;;14.95;4.60;;;16.90;99.90;;;;;;5071983;28;20396;-81
2021/08/28 01:24:03;;;;;;;8.93;3.78;;;16.90;99.90;;;;;;5072052;28;20024;-81
2021/08/28 01:26:43;;;;;;;9.55;4.20;;;16.80;99.90;;;;;;5071847;28;20210;-81
2021/08/28 01:29:21;;;;;;;7.90;3.47;;;16.80;99.90;;;;;;5071573;28;20032;-81
2021/08/28 01:31:50;;;;;;;10.15;3.88;;;16.80;99.90;;;;;;5040623;28;20064;-82
2021/08/28 01:34:20;;;;;;;9.63;3.85;;;16.70;99.90;;;;;;5071751;28;20040;-81
2021/08/28 01:36:46;;;;;;;10.00;3.70;;;16.70;99.90;;;;;;5071791;28;20434;-82
2021/08/28 01:39:13;;;;;;;11.52;3.65;;;16.70;99.90;;;;;;5053657;28;20032;-81
2021/08/28 01:41:42;;;;;;;9.18;3.65;;;16.70;99.90;;;;;;5053810;28;20488;-81
2021/08/28 01:44:10;;;;;;;9.65;3.72;;;16.60;99.90;;;;;;5071731;28;20384;-81
2021/08/28 01:46:41;;;;;;;9.32;4.72;;;16.70;99.90;;;;;;5070114;28;20069;-81
2021/08/28 01:49:10;;;;;;;9.48;4.00;;;16.60;99.90;;;;;;5071642;28;20103;-81
2021/08/28 01:51:38;;;;;;;7.63;3.92;;;16.60;99.90;;;;;;5071349;28;20070;-81
2021/08/28 01:54:04;;;;;;;10.38;4.18;;;16.50;99.90;;;;;;5071357;28;20036;-81
2021/08/28 01:56:31;;;;;;;7.35;3.90;;;16.40;99.90;;;;;;5053150;28;20047;-81
2021/08/28 01:59:00;;;;;;;11.27;3.70;;;16.40;99.90;;;;;;5071248;28;20021;-81
2021/08/28 02:01:26;;;;;;;7.47;3.25;;;16.40;99.90;;;;;;5071318;28;20016;-81
2021/08/28 02:03:52;;;;;;;8.30;4.20;;;16.40;99.90;;;;;;5071077;28;20024;-82
2021/08/28 02:06:48;;;;;;;14.10;3.47;;;16.40;99.90;;;;;;5071185;28;20082;-81
2021/08/28 02:09:47;;;;;;;7.28;3.70;;;16.40;99.90;;;;;;5070436;28;20040;-81
2021/08/28 02:12:28;;;;;;;8.13;3.70;;;16.40;99.90;;;;;;5070961;28;20270;-81
2021/08/28 02:15:15;;;;;;;11.73;3.85;;;16.30;99.90;;;;;;5071505;28;20151;-81
2021/08/28 02:17:47;;;;;;;9.30;3.95;;;16.40;99.90;;;;;;5057592;28;20021;-81
2021/08/28 02:20:15;;;;;;;8.27;4.18;;;16.30;99.90;;;;;;5070987;28;20028;-81
2021/08/28 02:22:46;;;;;;;7.18;3.65;;;16.30;99.90;;;;;;5070688;28;20020;-81
2021/08/28 02:25:30;;;;;;;8.60;3.97;;;16.20;99.90;;;;;;5071226;28;20029;-82
2021/08/28 02:28:04;;;;;;;7.65;4.10;;;16.20;99.90;;;;;;5071040;28;20052;-81
2021/08/28 02:30:31;;;;;;;9.43;3.75;;;16.20;99.90;;;;;;5070887;28;20468;-81
2021/08/28 02:33:00;;;;;;;9.90;3.75;;;16.20;99.90;;;;;;5070498;28;20500;-81
2021/08/28 02:35:28;;;;;;;9.50;4.32;;;16.20;99.90;;;;;;5070807;28;20020;-81
2021/08/28 02:37:56;;;;;;;7.53;3.72;;;16.10;99.90;;;;;;5070613;28;20541;-82
2021/08/28 02:40:23;;;;;;;10.32;3.85;;;16.10;99.90;;;;;;5052814;28;20078;-81
2021/08/28 02:42:50;;;;;;;9.73;4.10;;;16.00;99.90;;;;;;5071099;28;20400;-82
2021/08/28 02:45:18;;;;;;;8.20;3.80;;;16.00;99.90;;;;;;5070644;28;20043;-81
2021/08/28 02:47:46;;;;;;;12.30;4.00;;;16.00;99.90;;;;;;5070748;28;20104;-81
2021/08/28 02:50:16;;;;;;;9.27;3.90;;;16.00;99.90;;;;;;5070380;28;20024;-82
2021/08/28 02:52:48;;;;;;;8.50;3.47;;;16.00;99.90;;;;;;5052591;28;20078;-81
2021/08/28 02:55:15;;;;;;;10.95;3.97;;;15.90;99.90;;;;;;5066648;28;20033;-81
2021/08/28 02:57:45;;;;;;;9.90;3.90;;;15.80;99.90;;;;;;5060062;28;20024;-81
2021/08/28 03:00:12;;;;;;;9.13;3.42;;;15.80;99.90;;;;;;5070310;28;20056;-81
2021/08/28 03:02:38;;;;;;;7.07;3.53;;;15.80;99.90;;;;;;5070034;28;20016;-81
2021/08/28 03:05:07;;;;;;;5.82;3.35;;;15.80;99.90;;;;;;5069870;28;20103;-81
2021/08/28 03:07:34;;;;;;;9.02;3.47;;;15.80;99.90;;;;;;5070115;28;20111;-82
2021/08/28 03:10:02;;;;;;;7.57;3.75;;;15.80;99.90;;;;;;5070060;28;20051;-82
2021/08/28 03:12:28;;;;;;;10.35;3.80;;;15.80;99.90;;;;;;5051819;28;20021;-82
2021/08/28 03:14:54;;;;;;;9.00;3.92;;;15.80;99.90;;;;;;5069770;28;20048;-81
2021/08/28 03:17:20;;;;;;;10.75;4.68;;;15.70;99.90;;;;;;5069604;28;20051;-81
2021/08/28 03:19:48;;;;;;;10.45;4.07;;;15.70;99.90;;;;;;5069762;28;20519;-82
2021/08/28 03:22:18;;;;;;;7.57;4.00;;;15.70;99.90;;;;;;5069581;28;20525;-81
2021/08/28 03:24:47;;;;;;;8.20;3.80;;;15.70;99.90;;;;;;5069610;28;20435;-81
2021/08/28 03:27:15;;;;;;;5.55;3.22;;;15.60;99.90;;;;;;5051701;28;20024;-81
2021/08/28 03:29:43;;;;;;;5.50;3.47;;;15.60;99.90;;;;;;5069541;28;20493;-81
2021/08/28 03:32:09;;;;;;;9.18;3.50;;;15.60;99.90;;;;;;5069726;28;20411;-81
2021/08/28 03:34:36;;;;;;;6.45;3.67;;;15.60;99.90;;;;;;5069385;28;20386;-82
2021/08/28 03:37:02;;;;;;;8.77;3.22;;;15.60;99.90;;;;;;5069650;28;20023;-81
2021/08/28 03:39:29;;;;;;;9.15;3.45;;;15.50;99.90;;;;;;5069695;28;20116;-81
2021/08/28 03:41:55;;;;;;;6.65;3.40;;;15.50;99.90;;;;;;5045252;28;20459;-82
2021/08/28 03:44:21;;;;;;;6.75;3.40;;;15.50;99.90;;;;;;5062294;28;20024;-82
2021/08/28 03:46:48;;;;;;;6.53;3.50;;;15.50;99.90;;;;;;5069540;28;20019;-82
2021/08/28 03:49:15;;;;;;;9.20;3.60;;;15.50;99.90;;;;;;5069590;28;20028;-81
2021/08/28 03:51:41;;;;;;;7.50;3.55;;;15.40;99.90;;;;;;5069103;28;20013;-81
2021/08/28 03:54:07;;;;;;;6.20;2.83;;;15.40;99.90;;;;;;5069620;28;20039;-81
2021/08/28 03:56:33;;;;;;;8.20;3.67;;;15.40;99.90;;;;;;5069278;28;20028;-81
2021/08/28 03:58:59;;;;;;;7.30;3.25;;;15.40;99.90;;;;;;5069429;28;20035;-81
2021/08/28 04:01:24;;;;;;;8.57;3.30;;;15.40;99.90;;;;;;5056782;28;20021;-81
2021/08/28 04:03:50;;;;;;;12.10;3.40;;;15.40;99.90;;;;;;5068304;28;20016;-81
2021/08/28 04:06:16;;;;;;;5.03;2.85;;;15.40;99.90;;;;;;5069646;28;20021;-81
2021/08/28 04:08:46;;;;;;;8.02;2.92;;;15.40;99.90;;;;;;5069833;28;20066;-81
2021/08/28 04:11:12;;;;;;;10.00;3.30;;;15.30;99.90;;;;;;5073466;28;20040;-81
2021/08/28 04:13:37;;;;;;;7.28;3.10;;;15.30;99.90;;;;;;5073076;28;20484;-81
2021/08/28 04:16:04;;;;;;;8.50;3.35;;;15.30;99.90;;;;;;5072949;28;20021;-81
2021/08/28 04:18:29;;;;;;;6.35;2.92;;;15.30;99.90;;;;;;5073262;28;20588;-81
2021/08/28 04:20:55;;;;;;;7.53;3.08;;;15.40;99.90;;;;;;5073311;28;20104;-81
2021/08/28 04:23:21;;;;;;;6.15;2.90;;;15.30;99.90;;;;;;5072924;28;20055;-82
2021/08/28 04:25:46;;;;;;;9.40;3.28;;;15.30;99.90;;;;;;5073093;28;20048;-81
2021/08/28 04:28:12;;;;;;;9.05;3.10;;;15.30;99.90;;;;;;5073412;28;20025;-81
2021/08/28 04:30:38;;;;;;;6.72;3.03;;;15.30;99.90;;;;;;5073244;28;20260;-82
2021/08/28 04:33:04;;;;;;;6.88;3.30;;;15.30;99.90;;;;;;5072796;28;20027;-81
2021/08/28 04:35:30;;;;;;;8.93;3.10;;;15.30;99.90;;;;;;5072567;28;20068;-81
2021/08/28 04:37:56;;;;;;;11.63;3.38;;;15.30;99.90;;;;;;5072994;28;20044;-81
2021/08/28 04:40:21;;;;;;;9.32;3.42;;;15.20;99.90;;;;;;5072853;28;20059;-81
2021/08/28 04:42:47;;;;;;;7.20;3.20;;;15.30;99.90;;;;;;5072751;28;20028;-81
2021/08/28 04:45:13;;;;;;;9.35;3.28;;;15.30;99.90;;;;;;5072574;28;20314;-81
2021/08/28 04:47:39;;;;;;;6.50;3.22;;;15.30;99.90;;;;;;5072495;28;20028;-82
2021/08/28 04:50:05;;;;;;;9.10;3.20;;;15.30;99.90;;;;;;5072699;28;20384;-81
2021/08/28 04:52:31;;;;;;;9.43;3.67;;;15.20;99.90;;;;;;5072569;28;20047;-81
2021/08/28 04:54:57;;;;;;;10.85;3.15;;;15.30;99.90;;;;;;5072648;28;20376;-82
2021/08/28 04:57:22;;;;;;;7.63;3.30;;;15.30;99.90;;;;;;5072479;28;20021;-81
2021/08/28 04:59:48;;;;;;;9.27;3.60;;;15.20;99.90;;;;;;5072308;28;20025;-82
2021/08/28 05:02:13;;;;;;;7.18;3.50;;;15.20;99.90;;;;;;5054135;28;20020;-82
2021/08/28 05:04:39;;;;;;;8.35;3.55;;;15.20;99.90;;;;;;5054599;28;20036;-82
2021/08/28 05:07:05;;;;;;;8.63;3.05;;;15.10;99.90;;;;;;5057943;28;20025;-82
2021/08/28 05:09:31;;;;;;;8.57;2.92;;;15.10;99.90;;;;;;5072842;28;20024;-81
2021/08/28 05:11:57;;;;;;;7.10;3.53;;;15.10;99.90;;;;;;5073121;28;20027;-81
2021/08/28 05:14:22;;;;;;;8.57;3.30;;;15.10;99.90;;;;;;5072945;28;20111;-81
2021/08/28 05:16:48;;;;;;;10.35;4.13;;;15.10;99.90;;;;;;5072660;28;20059;-82
2021/08/28 05:19:14;;;;;;;7.60;3.13;;;15.10;99.90;;;;;;5072562;28;20021;-81
2021/08/28 05:21:40;;;;;;;6.30;3.15;;;15.10;99.90;;;;;;5072384;28;20036;-81
2021/08/28 05:24:06;;;;;;;7.75;3.78;;;15.10;99.90;;;;;;5072930;28;20104;-81
2021/08/28 05:26:32;;;;;;;8.40;3.42;;;15.10;99.90;;;;;;5071884;28;20435;-82
2021/08/28 05:28:58;;;;;;;9.20;3.50;;;15.10;99.90;;;;;;5054018;28;20077;-82
2021/08/28 05:31:24;;;;;;;7.88;3.67;;;15.10;99.90;;;;;;5072522;28;20033;-81
2021/08/28 05:33:49;;;;;;;10.38;3.78;;;15.10;99.90;;;;;;5071845;28;20082;-82
2021/08/28 05:36:15;;;;;;;13.13;3.72;;;15.10;99.90;;;;;;5071208;28;20067;-82
2021/08/28 05:38:41;;;;;;;8.60;3.60;;;15.10;99.90;;;;;;5071552;28;20028;-83
2021/08/28 05:41:08;;;;;;;8.63;3.83;;;15.20;99.90;;;;;;5069491;28;20988;-82
2021/08/28 05:43:34;;;;;;;6.53;3.28;;;15.20;99.90;;;;;;5053086;28;20016;-83
2021/08/28 05:46:00;;;;;;;13.80;3.47;;;15.20;99.90;;;;;;5073321;28;20027;-82
2021/08/28 05:48:25;;;;;;;10.10;3.88;;;15.30;99.90;;;;;;5067800;28;20020;-82
2021/08/28 05:50:51;;;;;;;9.82;3.60;;;15.30;99.90;;;;;;5050262;28;20027;-82
2021/08/28 05:53:17;;;;;;;12.95;3.65;;;15.30;99.90;;;;;;5071655;28;20024;-83
2021/08/28 05:55:43;;;;;;;13.00;3.95;;;15.30;99.90;;;;;;5062439;28;20035;-82
2021/08/28 05:58:08;;;;;;;9.35;3.97;;;15.30;99.90;;;;;;5072085;28;20020;-82
2021/08/28 06:00:34;;;;;;;9.10;3.63;;;15.40;99.90;;;;;;5070857;28;20025;-82
2021/08/28 06:03:00;;;;;;;8.13;3.75;;;15.40;99.90;;;;;;5070953;28;20544;-82
2021/08/28 06:05:25;;;;;;;14.05;3.92;;;15.50;99.90;;;;;;5071076;28;20096;-82
2021/08/28 06:07:51;;;;;;;9.45;3.83;;;15.60;99.90;;;;;;5070981;28;20108;-83
2021/08/28 06:10:16;;;;;;;14.25;3.70;;;15.70;99.90;;;;;;5071839;28;20554;-82
2021/08/28 06:12:42;;;;;;;12.80;4.03;;;15.70;99.90;;;;;;5043658;28;20496;-82
2021/08/28 06:15:08;;;;;;;8.43;4.00;;;15.70;99.90;;;;;;5070965;28;20036;-82
2021/08/28 06:17:35;;;;;;;13.40;3.85;;;15.80;99.90;;;;;;5070504;28;20013;-82
2021/08/28 06:20:01;;;;;;;8.05;3.92;;;15.90;99.90;;;;;;5046316;28;20035;-83
2021/08/28 06:22:26;;;;;;;10.13;3.97;;;15.90;99.90;;;;;;5034108;28;20481;-82
2021/08/28 06:24:52;;;;;;;16.48;4.32;;;15.90;99.90;;;;;;5056763;28;20070;-82
2021/08/28 06:27:18;;;;;;;9.20;4.07;;;15.90;99.90;;;;;;5070896;28;20078;-83
2021/08/28 06:29:43;;;;;;;8.68;3.67;;;15.90;99.90;;;;;;5051434;28;20483;-83
2021/08/28 06:32:09;;;;;;;11.20;3.75;;;16.00;99.90;;;;;;5054740;28;20385;-82
2021/08/28 06:34:35;;;;;;;13.00;4.57;;;16.00;99.90;;;;;;5051037;28;20040;-82
2021/08/28 06:37:00;;;;;;;12.68;4.22;;;16.00;99.90;;;;;;5055272;28;20162;-82
2021/08/28 06:39:26;;;;;;;12.13;4.38;;;16.10;99.90;;;;;;5053239;28;20469;-82
2021/08/28 06:41:52;;;;;;;9.57;3.63;;;16.20;99.90;;;;;;5056588;28;20017;-82
2021/08/28 06:44:17;;;;;;;10.35;4.05;;;16.20;99.90;;;;;;5072226;28;20113;-83
2021/08/28 06:46:43;;;;;;;7.60;3.65;;;16.20;99.90;;;;;;5070649;28;20477;-82
2021/08/28 06:49:09;;;;;;;8.80;4.30;;;16.10;99.90;;;;;;5060974;28;20032;-83
2021/08/28 06:51:35;;;;;;;11.82;4.25;;;16.20;99.90;;;;;;5066647;28;20032;-83
2021/08/28 06:54:01;;;;;;;10.15;4.07;;;16.30;99.90;;;;;;5070716;28;20017;-82
2021/08/28 06:56:27;;;;;;;11.90;4.00;;;16.40;99.90;;;;;;5070633;28;20028;-83
2021/08/28 06:58:52;;;;;;;16.80;4.63;;;16.40;99.90;;;;;;5070838;28;20024;-81
2021/08/28 07:01:18;;;;;;;9.90;3.70;;;16.50;99.90;;;;;;5052488;28;20078;-81
2021/08/28 07:03:44;;;;;;;8.20;3.90;;;16.50;99.90;;;;;;5060997;28;20016;-81
2021/08/28 07:06:10;;;;;;;6.57;3.63;;;16.50;99.90;;;;;;5061072;28;20535;-82
2021/08/28 07:08:36;;;;;;;8.20;3.90;;;16.50;99.90;;;;;;5067893;28;20024;-81
2021/08/28 07:11:01;;;;;;;10.63;4.13;;;16.60;99.90;;;;;;5069869;28;20499;-81
2021/08/28 07:13:27;;;;;;;6.65;3.58;;;16.70;99.90;;;;;;5069870;28;20203;-82
2021/08/28 07:15:53;;;;;;;9.82;4.10;;;16.70;99.90;;;;;;5069251;28;20025;-83
2021/08/28 07:18:18;;;;;;;11.52;4.13;;;16.80;99.90;;;;;;5070148;28;20082;-83
2021/08/28 07:20:44;;;;;;;10.77;3.22;;;16.80;99.90;;;;;;5069989;28;20381;-82
2021/08/28 07:23:10;;;;;;;8.13;3.35;;;16.80;99.90;;;;;;5069854;28;20024;-82
2021/08/28 07:25:39;;;;;;;6.68;3.40;;;16.90;99.90;;;;;;5069893;28;20017;-82
2021/08/28 07:28:07;;;;;;;14.07;4.35;;;17.00;99.90;;;;;;5069519;28;20024;-84
2021/08/28 07:30:32;;;;;;;13.10;3.45;;;17.10;99.90;;;;;;5051504;28;20417;-82
2021/08/28 07:32:58;;;;;;;8.63;3.13;;;17.20;99.90;;;;;;5086932;28;20020;-89
2021/08/28 07:35:25;;;;;;;9.63;3.25;;;17.40;99.90;;;;;;5089803;28;20118;-81
2021/08/28 07:37:51;;;;;;;6.85;2.80;;;17.50;99.90;;;;;;5089822;28;20027;-82
2021/08/28 07:40:17;;;;;;;10.77;2.83;;;17.50;99.90;;;;;;5090472;28;20020;-83
2021/08/28 07:42:42;;;;;;;8.00;2.50;;;17.60;99.90;;;;;;5089646;28;20031;-82
2021/08/28 07:45:09;;;;;;;5.53;2.47;;;17.70;99.90;;;;;;5088301;28;20613;-88
2021/08/28 07:47:34;;;;;;;9.50;3.30;;;17.70;99.90;;;;;;5089897;28;20051;-82
2021/08/28 07:50:00;;;;;;;9.45;2.80;;;17.80;99.90;;;;;;5089905;28;20052;-82
2021/08/28 07:52:26;;;;;;;7.85;2.30;;;17.90;99.90;;;;;;5089609;28;20042;-82
2021/08/28 07:54:51;;;;;;;9.02;2.88;;;18.00;99.90;;;;;;5089444;28;20024;-82
2021/08/28 07:57:17;;;;;;;6.03;2.63;;;18.00;99.90;;;;;;5089368;28;20016;-83
2021/08/28 07:59:43;;;;;;;8.50;2.55;;;18.00;99.90;;;;;;5089592;28;20024;-83
2021/08/28 08:02:08;;;;;;;5.90;2.53;;;18.00;99.90;;;;;;5077900;28;20025;-83
2021/08/28 08:04:34;;;;;;;7.25;2.15;;;18.00;99.90;;;;;;5081472;28;20459;-83
2021/08/28 08:07:00;;;;;;;8.80;2.40;;;18.20;99.90;;;;;;5074935;28;20058;-83
2021/08/28 08:09:25;;;;;;;10.52;2.60;;;18.30;99.90;;;;;;5089239;28;20099;-82
2021/08/28 08:11:51;;;;;;;8.23;2.53;;;18.30;99.90;;;;;;5089410;28;20024;-83
2021/08/28 08:14:17;;;;;;;7.93;2.80;;;18.40;99.90;;;;;;5089232;28;20028;-82
2021/08/28 08:16:42;;;;;;;12.32;2.80;;;18.50;99.90;;;;;;5089177;28;20417;-82
2021/08/28 08:19:08;;;;;;;10.05;2.80;;;18.60;99.90;;;;;;5089112;28;20021;-82
2021/08/28 08:21:34;;;;;;;8.60;2.35;;;18.60;99.90;;;;;;5089584;28;20024;-82
2021/08/28 08:23:59;;;;;;;9.48;2.47;;;18.70;99.90;;;;;;5089150;28;20348;-83
2021/08/28 08:26:25;;;;;;;9.93;2.55;;;18.90;99.90;;;;;;5089209;28;20024;-83
2021/08/28 08:28:51;;;;;;;9.00;2.58;;;19.00;99.90;;;;;;5089516;28;20035;-82
2021/08/28 08:31:17;;;;;;;9.88;2.28;;;19.00;99.50;;;;;;5072217;28;20032;-83
2021/08/28 08:33:43;;;;;;;6.63;2.20;;;19.10;99.30;;;;;;5069016;28;20031;-83
2021/08/28 08:36:09;;;;;;;11.07;2.10;;;19.20;99.10;;;;;;5069234;28;20028;-83
2021/08/28 08:38:34;;;;;;;6.05;2.08;;;19.30;98.70;;;;;;5069313;28;20023;-82
2021/08/28 08:41:01;;;;;;;4.72;1.70;;;19.40;98.60;;;;;;5069196;28;20111;-83
2021/08/28 08:43:27;;;;;;;5.63;1.85;;;19.50;97.50;;;;;;5068827;28;20028;-83
2021/08/28 08:45:54;;;;;;;8.88;2.58;;;19.60;97.00;;;;;;5068932;28;20031;-82
2021/08/28 08:48:21;;;;;;;6.00;1.80;;;19.70;96.60;;;;;;5068700;28;20489;-83
2021/08/28 08:50:47;;;;;;;6.57;1.90;;;19.80;96.30;;;;;;5069060;28;20029;-83
2021/08/28 08:53:17;;;;;;;8.05;2.20;;;19.90;95.90;;;;;;5068689;28;20048;-83
2021/08/28 08:55:43;;;;;;;6.55;1.80;;;20.10;96.20;;;;;;5052293;28;20048;-82
2021/08/28 08:58:10;;;;;;;7.50;2.30;;;20.20;95.50;;;;;;5054716;28;20024;-83
2021/08/28 09:00:36;;;;;;;6.25;1.95;;;20.10;94.40;;;;;;5072477;28;20021;-83
2021/08/28 09:03:02;;;;;;;6.30;1.48;;;20.20;94.20;;;;;;5072887;28;20366;-83
2021/08/28 09:05:27;;;;;;;4.80;1.80;;;20.30;94.00;;;;;;5072529;28;20085;-82
2021/08/28 09:07:53;;;;;;;3.13;1.50;;;20.40;93.40;;;;;;5072391;28;20085;-84
2021/08/28 09:10:19;;;;;;;4.25;1.35;;;20.50;93.00;;;;;;5052341;28;20028;-83
2021/08/28 09:12:44;;;;;;;5.57;1.50;;;20.60;91.10;;;;;;5060460;28;20025;-83
2021/08/28 09:15:15;;;;;;;3.15;1.30;;;20.70;91.00;;;;;;5072324;28;20036;-83
2021/08/28 09:17:56;;;;;;;5.35;1.60;;;20.80;90.90;;;;;;5058862;28;20441;-82
2021/08/28 09:20:23;;;;;;;4.78;1.35;;;20.90;92.00;;;;;;5071888;28;20045;-83
2021/08/28 09:22:49;;;;;;;4.63;1.40;;;21.00;91.50;;;;;;5053773;28;20044;-83
2021/08/28 09:25:23;;;;;;;5.13;1.48;;;21.10;90.40;;;;;;5072174;28;20028;-83
2021/08/28 09:27:50;;;;;;;4.35;1.42;;;21.20;89.30;;;;;;5071939;28;20178;-83
2021/08/28 09:30:15;;;;;;;4.13;1.60;;;21.20;86.80;;;;;;5071957;28;20044;-83
2021/08/28 09:32:52;;;;;;;2.95;1.10;;;21.20;85.80;;;;;;5053594;28;20151;-83
2021/08/28 09:35:19;;;;;;;4.70;1.58;;;21.20;87.00;;;;;;5053893;28;20090;-83
2021/08/28 09:37:53;;;;;;;3.10;1.05;;;21.20;87.00;;;;;;5071835;28;20028;-83
2021/08/28 09:40:22;;;;;;;5.47;1.98;;;21.20;84.90;;;;;;5058809;28;20020;-83
2021/08/28 09:42:57;;;;;;;4.25;1.58;;;21.30;85.80;;;;;;5071780;28;20028;-83
2021/08/28 09:45:24;;;;;;;;;;;21.40;86.40;;;;;;5059194;28;20413;-84
2021/08/28 09:47:53;;;;;;;3.90;1.00;;;21.50;82.90;;;;;;5071893;28;19908;-83
2021/08/28 09:50:34;;;;;;;2.95;1.42;;;21.60;83.30;;;;;;5071463;28;20023;-83
2021/08/28 09:53:05;;;;;;;4.57;1.33;;;21.70;82.80;;;;;;5072044;28;20051;-82
2021/08/28 09:55:33;;;;;;;3.47;1.38;;;21.80;82.30;;;;;;5057694;28;20032;-83
2021/08/28 09:57:59;;;;;;;4.22;1.10;;;21.90;80.60;;;;;;5071599;28;20488;-83
2021/08/28 10:00:25;;;;;;;3.45;1.38;;;21.90;80.80;;;;;;5071311;28;20118;-83
2021/08/28 10:03:09;;;;;;;5.45;1.33;;;21.90;79.70;;;;;;5071460;28;20025;-76
2021/08/28 10:05:36;;;;;;;4.88;1.15;;;22.00;78.20;;;;;;5071193;28;20023;-76
2021/08/28 10:08:05;;;;;;;3.15;0.88;;;22.10;77.50;;;;;;5070342;28;20131;-77
2021/08/28 10:10:34;;;;;;;5.50;1.27;;;22.20;75.50;;;;;;5071066;28;20087;-77
2021/08/28 10:13:01;;;;;;;2.38;1.10;;;22.20;77.10;;;;;;5071102;28;20024;-78
2021/08/28 10:15:29;;;;;;;2.97;1.02;;;22.20;77.50;;;;;;5070843;28;20047;-77
2021/08/28 10:17:56;;;;;;;6.80;1.25;;;22.30;75.70;;;;;;5070954;28;20027;-79
2021/08/28 10:20:23;;;;;;;5.68;1.92;;;22.40;74.70;;;;;;5071095;28;20544;-78
2021/08/28 10:22:54;;;;;;;4.55;1.33;;;22.40;74.80;;;;;;5070928;28;20025;-79
2021/08/28 10:25:22;;;;;;;3.47;1.20;;;22.50;75.10;;;;;;5070964;28;20405;-77
2021/08/28 10:27:48;;;;;;;6.60;1.80;;;22.60;72.50;;;;;;5070724;28;20111;-77
2021/08/28 10:30:16;;;;;;;4.82;1.30;;;22.60;74.50;;;;;;5065110;28;20032;-78
2021/08/28 10:32:42;;;;;;;3.05;1.20;;;22.70;73.20;;;;;;5090868;28;20054;-77
2021/08/28 10:35:09;;;;;;;5.05;0.93;;;22.80;73.20;;;;;;5091012;28;20115;-77
2021/08/28 10:37:35;;;;;;;4.13;1.08;;;22.80;73.20;;;;;;5091121;28;20584;-77
2021/08/28 10:40:10;;;;;;;4.82;1.58;;;22.90;74.20;;;;;;5090649;28;20024;-77
2021/08/28 10:42:38;;;;;;;4.82;1.25;;;23.10;72.00;;;;;;5091009;28;20025;-77
2021/08/28 10:45:04;;;;;;;5.05;1.25;;;23.10;71.50;;;;;;5090718;28;20494;-77
2021/08/28 10:47:33;;;;;;;4.63;1.45;;;23.10;71.50;;;;;;5090851;28;20438;-78
2021/08/28 10:50:10;;;;;;;4.40;1.20;;;23.10;71.90;;;;;;5090715;28;20023;-73
2021/08/28 10:52:38;;;;;;;4.10;1.33;;;23.30;71.80;;;;;;5090602;28;20119;-73
2021/08/28 10:55:04;;;;;;;5.85;1.00;;;23.40;71.40;;;;;;5090908;28;20023;-72
2021/08/28 10:57:30;;;;;;;3.83;0.90;;;23.40;69.70;;;;;;5090569;28;20487;-72
2021/08/28 11:00:00;;;;;;;5.55;1.00;;;23.40;67.90;;;;;;5090503;28;20032;-75
2021/08/28 11:02:48;;;;;;;3.30;1.10;;;23.40;68.40;;;;;;5090291;28;20016;-74
2021/08/28 11:05:15;;;;;;;5.75;0.98;;;23.30;66.70;;;;;;5089197;28;20024;-74
2021/08/28 11:07:42;;;;;;;3.97;1.05;;;23.20;66.80;;;;;;5089314;28;20415;-74
2021/08/28 11:10:25;;;;;;;8.68;1.55;;;23.30;67.20;;;;;;5090524;28;20138;-75
2021/08/28 11:13:03;;;;;;;6.75;1.10;;;23.40;68.80;;;;;;5090813;28;20043;-75
2021/08/28 11:15:29;;;;;;;3.92;1.10;;;23.60;66.50;;;;;;5090008;28;20040;-74
2021/08/28 11:18:01;;;;;;;6.00;1.27;;;23.70;66.90;;;;;;5088836;28;20012;-74
2021/08/28 11:20:28;;;;;;;5.20;1.02;;;23.80;65.40;;;;;;5090630;28;20039;-74
2021/08/28 11:22:54;;;;;;;4.72;1.23;;;23.90;64.30;;;;;;5090075;28;20020;-74
2021/08/28 11:25:27;;;;;;;2.70;0.90;;;23.90;63.80;;;;;;5090030;28;20034;-74
2021/08/28 11:27:56;;;;;;;2.85;1.00;;;23.90;63.50;;;;;;5090194;28;20515;-83
2021/08/28 11:30:44;;;;;;;2.55;0.82;;;24.00;63.60;;;;;;5080574;28;20123;-83
2021/08/28 11:33:19;;;;;;;3.50;0.90;;;24.10;61.60;;;;;;5069983;28;20154;-83
2021/08/28 11:35:54;;;;;;;1.60;0.70;;;24.20;61.60;;;;;;5069599;28;20031;-82
2021/08/28 11:38:23;;;;;;;3.47;0.80;;;24.40;60.40;;;;;;5069734;28;20392;-82
2021/08/28 11:41:07;;;;;;;2.63;0.90;;;24.30;60.80;;;;;;5069449;28;20017;-83
2021/08/28 11:43:41;;;;;;;2.87;0.60;;;24.30;60.10;;;;;;5069779;28;20484;-82
2021/08/28 11:46:16;;;;;;;3.28;0.77;;;24.30;59.10;;;;;;5069608;28;20127;-82
2021/08/28 11:48:46;;;;;;;2.92;0.82;;;24.40;60.20;;;;;;5069564;28;20083;-82
2021/08/28 11:51:17;;;;;;;3.00;0.90;;;24.50;61.60;;;;;;5069390;28;20026;-83
2021/08/28 11:53:45;;;;;;;2.15;0.90;;;24.70;60.70;;;;;;5069424;28;20021;-83
2021/08/28 11:56:17;;;;;;;2.88;0.95;;;24.70;59.30;;;;;;5069626;28;20385;-82
2021/08/28 11:58:57;;;;;;;3.53;0.80;;;24.80;60.10;;;;;;5069595;28;20051;-83
2021/08/28 12:01:29;;;;;;;2.70;0.80;;;24.90;59.90;;;;;;5069641;28;20513;-83
2021/08/28 12:03:57;;;;;;;3.08;0.80;;;25.00;59.40;;;;;;5069384;28;20029;-82
2021/08/28 12:06:24;;;;;;;2.45;1.05;;;25.00;58.30;;;;;;5069305;28;20021;-82
2021/08/28 12:08:51;;;;;;;2.78;0.90;;;24.90;58.90;;;;;;5051396;28;20044;-83
2021/08/28 12:11:17;;;;;;;2.08;0.85;;;24.90;59.10;;;;;;5069543;28;20017;-83
2021/08/28 12:13:55;;;;;;;2.78;0.82;;;25.10;59.00;;;;;;5069307;28;20031;-83
2021/08/28 12:16:26;;;;;;;2.22;0.85;;;25.30;58.70;;;;;;5069077;28;20055;-83
2021/08/28 12:19:15;;;;;;;4.25;0.88;;;25.50;57.90;;;;;;5069592;28;20017;-82
2021/08/28 12:21:43;;;;;;;2.83;0.82;;;25.40;56.60;;;;;;5055806;28;20037;-83
2021/08/28 12:24:24;;;;;;;2.45;0.60;;;25.50;56.00;;;;;;5069475;28;20023;-83
2021/08/28 12:26:51;;;;;;;2.22;0.63;;;25.60;55.40;;;;;;5069049;28;20111;-83
2021/08/28 12:29:25;;;;;;;1.75;0.50;;;25.50;55.80;;;;;;5069598;28;20028;-83
2021/08/28 12:32:07;;;;;;;4.32;1.08;;;25.60;56.50;;;;;;5092591;28;20036;-83
2021/08/28 12:34:35;;;;;;;1.20;0.68;;;25.80;56.40;;;;;;5093442;28;20085;-82
2021/08/28 12:37:05;;;;;;;4.13;0.80;;;26.00;55.90;;;;;;5093112;28;20020;-83
2021/08/28 12:39:32;;;;;;;1.85;0.80;;;26.20;55.60;;;;;;5093331;28;20082;-81
2021/08/28 12:41:59;;;;;;;2.45;0.70;;;26.50;55.20;;;;;;5093147;28;20040;-81
2021/08/28 12:44:30;;;;;;;2.75;0.75;;;26.40;54.90;;;;;;5093223;28;20113;-81
2021/08/28 12:46:57;;;;;;;3.30;0.82;;;26.20;54.90;;;;;;5093085;28;20489;-81
2021/08/28 12:49:24;;;;;;;2.65;0.70;;;26.20;54.80;;;;;;5091636;28;20076;-81
2021/08/28 12:51:56;;;;;;;2.95;0.50;;;26.40;53.90;;;;;;5093514;28;20572;-81